ELY705 LFPO-EICK
Flight info
| Callsign | ELY705 |
|---|---|
| Flight time | N/A |
| Altitude | 38000 |
| Route | LGL2E/07 LGL UN491 UPALO UN862 SKESO DCT SKERY DCT EMWIP DCT GISOK DCT ELTIG ELTIG1R |
| Aircraft | B738/M-SDE2E3FGHIRWXY/LB1 |
Departure
| Time | 2026-05-07 19:29 |
|---|---|
| Airport | Paris-Orly Airport (LFPO) |
Arrival
| Time | N/A |
|---|---|
| Airport | Cork International Airport (EICK) |
| Time | Latitude | Longitude | Altitude | Speed | Heading |
|---|---|---|---|---|---|
| 2026-05-07 19:10 | 48.72899 | 2.35661 | 300 ft | 12 kts | 118° |
| 2026-05-07 19:18 | 48.72909 | 2.35634 | 305 ft | 4 kts | 117° |
| 2026-05-07 19:18 | 48.72921 | 2.35597 | 304 ft | 4 kts | 116° |
| 2026-05-07 19:18 | 48.72933 | 2.35561 | 300 ft | 4 kts | 122° |
| 2026-05-07 19:18 | 48.72949 | 2.35531 | 304 ft | 4 kts | 159° |
| 2026-05-07 19:19 | 48.72959 | 2.35528 | 302 ft | 2 kts | 194° |
| 2026-05-07 19:24 | 48.72954 | 2.35527 | 298 ft | 1 kts | 188° |
| 2026-05-07 19:24 | 48.72929 | 2.35531 | 298 ft | 7 kts | 168° |
| 2026-05-07 19:24 | 48.72864 | 2.35558 | 302 ft | 13 kts | 164° |
| 2026-05-07 19:24 | 48.72764 | 2.35606 | 299 ft | 16 kts | 166° |
| 2026-05-07 19:25 | 48.72648 | 2.35645 | 299 ft | 17 kts | 166° |
| 2026-05-07 19:25 | 48.72536 | 2.35695 | 298 ft | 16 kts | 168° |
| 2026-05-07 19:25 | 48.72438 | 2.35643 | 298 ft | 14 kts | 205° |
| 2026-05-07 19:25 | 48.72356 | 2.35642 | 299 ft | 11 kts | 178° |
| 2026-05-07 19:26 | 48.72281 | 2.35616 | 302 ft | 11 kts | 197° |
| 2026-05-07 19:26 | 48.72228 | 2.35606 | 298 ft | 12 kts | 172° |
| 2026-05-07 19:26 | 48.72139 | 2.35639 | 301 ft | 14 kts | 163° |
| 2026-05-07 19:26 | 48.72050 | 2.35709 | 300 ft | 14 kts | 133° |
| 2026-05-07 19:27 | 48.72032 | 2.35748 | 298 ft | 0 kts | 118° |
| 2026-05-07 19:28 | 48.72032 | 2.35749 | 298 ft | 1 kts | 118° |
| 2026-05-07 19:28 | 48.72017 | 2.35791 | 302 ft | 9 kts | 118° |
| 2026-05-07 19:28 | 48.71977 | 2.35920 | 301 ft | 17 kts | 106° |
| 2026-05-07 19:28 | 48.72002 | 2.36150 | 302 ft | 36 kts | 72° |
| 2026-05-07 19:29 | 48.72129 | 2.36869 | 301 ft | 103 kts | 75° |
| 2026-05-07 19:29 | 48.72365 | 2.38173 | 324 ft | 152 kts | 75° |
| 2026-05-07 19:29 | 48.72659 | 2.39779 | 827 ft | 160 kts | 75° |
| 2026-05-07 19:29 | 48.72937 | 2.41448 | 1484 ft | 164 kts | 76° |
| 2026-05-07 19:30 | 48.73242 | 2.43155 | 2147 ft | 173 kts | 75° |
| 2026-05-07 19:30 | 48.73564 | 2.45046 | 2580 ft | 197 kts | 76° |
| 2026-05-07 19:30 | 48.73942 | 2.47116 | 2964 ft | 213 kts | 75° |
| 2026-05-07 19:30 | 48.74134 | 2.49398 | 3290 ft | 228 kts | 93° |
| 2026-05-07 19:31 | 48.73882 | 2.51837 | 3685 ft | 240 kts | 101° |
| 2026-05-07 19:31 | 48.73777 | 2.54394 | 4133 ft | 251 kts | 88° |
| 2026-05-07 19:31 | 48.73862 | 2.57159 | 4376 ft | 275 kts | 91° |
| 2026-05-07 19:31 | 48.73371 | 2.59958 | 5120 ft | 279 kts | 124° |
| 2026-05-07 19:32 | 48.71933 | 2.61829 | 6057 ft | 275 kts | 159° |
| 2026-05-07 19:32 | 48.70050 | 2.62230 | 6765 ft | 279 kts | 188° |
| 2026-05-07 19:32 | 48.68237 | 2.61204 | 7458 ft | 281 kts | 218° |
| 2026-05-07 19:32 | 48.67038 | 2.58928 | 8319 ft | 277 kts | 248° |
| 2026-05-07 19:33 | 48.66443 | 2.56154 | 9166 ft | 279 kts | 259° |
| 2026-05-07 19:33 | 48.66364 | 2.53208 | 9923 ft | 282 kts | 271° |
| 2026-05-07 19:33 | 48.66446 | 2.50277 | 10625 ft | 286 kts | 271° |
| 2026-05-07 19:33 | 48.66507 | 2.47156 | 10865 ft | 306 kts | 270° |
| 2026-05-07 19:34 | 48.66535 | 2.43914 | 11532 ft | 311 kts | 269° |
| 2026-05-07 19:34 | 48.66500 | 2.40579 | 12033 ft | 322 kts | 268° |
| 2026-05-07 19:34 | 48.66419 | 2.37221 | 13049 ft | 315 kts | 266° |
| 2026-05-07 19:34 | 48.65979 | 2.33905 | 13321 ft | 335 kts | 245° |
| 2026-05-07 19:35 | 48.64716 | 2.30840 | 13660 ft | 350 kts | 237° |
| 2026-05-07 19:35 | 48.63495 | 2.27614 | 14232 ft | 356 kts | 246° |
| 2026-05-07 19:35 | 48.62958 | 2.23980 | 14907 ft | 359 kts | 270° |
| 2026-05-07 19:35 | 48.63218 | 2.20218 | 15694 ft | 360 kts | 277° |
| 2026-05-07 19:36 | 48.63598 | 2.16460 | 16397 ft | 364 kts | 278° |
| 2026-05-07 19:36 | 48.63998 | 2.12653 | 17055 ft | 368 kts | 278° |
| 2026-05-07 19:36 | 48.64408 | 2.08812 | 17733 ft | 372 kts | 278° |
| 2026-05-07 19:36 | 48.64818 | 2.04936 | 18387 ft | 375 kts | 277° |
| 2026-05-07 19:37 | 48.65224 | 2.01030 | 18975 ft | 378 kts | 277° |
| 2026-05-07 19:37 | 48.65626 | 1.97083 | 19550 ft | 381 kts | 277° |
| 2026-05-07 19:37 | 48.66027 | 1.93102 | 20124 ft | 384 kts | 277° |
| 2026-05-07 19:37 | 48.66428 | 1.89088 | 20680 ft | 387 kts | 277° |
| 2026-05-07 19:38 | 48.66832 | 1.85047 | 21225 ft | 390 kts | 277° |
| 2026-05-07 19:38 | 48.67237 | 1.80966 | 21776 ft | 393 kts | 277° |
| 2026-05-07 19:38 | 48.67640 | 1.76868 | 22321 ft | 396 kts | 277° |
| 2026-05-07 19:38 | 48.68044 | 1.72728 | 22857 ft | 399 kts | 277° |
| 2026-05-07 19:39 | 48.68450 | 1.68564 | 23410 ft | 401 kts | 277° |
| 2026-05-07 19:39 | 48.68855 | 1.64387 | 24026 ft | 400 kts | 277° |
| 2026-05-07 19:39 | 48.69256 | 1.60245 | 24680 ft | 396 kts | 276° |
| 2026-05-07 19:39 | 48.69653 | 1.56130 | 25305 ft | 394 kts | 276° |
| 2026-05-07 19:40 | 48.70032 | 1.52078 | 25844 ft | 393 kts | 276° |
| 2026-05-07 19:40 | 48.70415 | 1.47972 | 26002 ft | 394 kts | 276° |
| 2026-05-07 19:40 | 48.70804 | 1.43873 | 26023 ft | 393 kts | 276° |
| 2026-05-07 19:40 | 48.71197 | 1.39773 | 26020 ft | 394 kts | 276° |
| 2026-05-07 19:41 | 48.71586 | 1.35680 | 26036 ft | 394 kts | 276° |
| 2026-05-07 19:41 | 48.71980 | 1.31551 | 26045 ft | 400 kts | 276° |
| 2026-05-07 19:41 | 48.72381 | 1.27314 | 26049 ft | 413 kts | 276° |
| 2026-05-07 19:41 | 48.72791 | 1.22943 | 26045 ft | 423 kts | 276° |
| 2026-05-07 19:42 | 48.73205 | 1.18507 | 26227 ft | 428 kts | 276° |
| 2026-05-07 19:42 | 48.73619 | 1.14053 | 26790 ft | 425 kts | 276° |
| 2026-05-07 19:42 | 48.74028 | 1.09629 | 27275 ft | 425 kts | 276° |
| 2026-05-07 19:42 | 48.74436 | 1.05192 | 27628 ft | 427 kts | 276° |
| 2026-05-07 19:43 | 48.74847 | 1.00704 | 27943 ft | 431 kts | 276° |
| 2026-05-07 19:43 | 48.75257 | 0.96196 | 28279 ft | 433 kts | 276° |
| 2026-05-07 19:43 | 48.75667 | 0.91669 | 28635 ft | 435 kts | 276° |
| 2026-05-07 19:43 | 48.76078 | 0.87118 | 28996 ft | 436 kts | 276° |
| 2026-05-07 19:44 | 48.76487 | 0.82570 | 29461 ft | 435 kts | 276° |
| 2026-05-07 19:44 | 48.76894 | 0.78033 | 30009 ft | 432 kts | 276° |
| 2026-05-07 19:44 | 48.77295 | 0.73527 | 30464 ft | 430 kts | 276° |
| 2026-05-07 19:44 | 48.77693 | 0.69039 | 30831 ft | 430 kts | 276° |
| 2026-05-07 19:45 | 48.78089 | 0.64550 | 31169 ft | 430 kts | 276° |
| 2026-05-07 19:45 | 48.78479 | 0.60121 | 31537 ft | 429 kts | 275° |
| 2026-05-07 19:45 | 48.78871 | 0.55644 | 31938 ft | 427 kts | 275° |
| 2026-05-07 19:45 | 48.79251 | 0.51184 | 32309 ft | 426 kts | 274° |
| 2026-05-07 19:46 | 48.79563 | 0.46719 | 32658 ft | 425 kts | 273° |
| 2026-05-07 19:46 | 48.79834 | 0.42259 | 33030 ft | 424 kts | 272° |
| 2026-05-07 19:46 | 48.80093 | 0.37796 | 33339 ft | 425 kts | 272° |
| 2026-05-07 19:46 | 48.80353 | 0.33336 | 33672 ft | 424 kts | 272° |
| 2026-05-07 19:47 | 48.80617 | 0.28882 | 34019 ft | 424 kts | 272° |
| 2026-05-07 19:47 | 48.80884 | 0.24395 | 34001 ft | 428 kts | 272° |
| 2026-05-07 19:47 | 48.81424 | 0.15405 | 34019 ft | 426 kts | 272° |
| 2026-05-07 19:48 | 48.81963 | 0.06505 | 34034 ft | 425 kts | 272° |
| 2026-05-07 19:48 | 48.82499 | -0.02526 | 34239 ft | 433 kts | 273° |
| 2026-05-07 19:49 | 48.82767 | -0.07099 | 34350 ft | 437 kts | 273° |
| 2026-05-07 19:49 | 48.83035 | -0.11689 | 34619 ft | 436 kts | 273° |
| 2026-05-07 19:49 | 48.83297 | -0.16200 | 34938 ft | 433 kts | 273° |
| 2026-05-07 19:49 | 48.83563 | -0.20814 | 35203 ft | 433 kts | 273° |
| 2026-05-07 19:50 | 48.83819 | -0.25312 | 35411 ft | 434 kts | 272° |
| 2026-05-07 19:50 | 48.84074 | -0.29938 | 35621 ft | 434 kts | 272° |
| 2026-05-07 19:50 | 48.84315 | -0.34445 | 35865 ft | 434 kts | 272° |
| 2026-05-07 19:50 | 48.84555 | -0.38998 | 36113 ft | 433 kts | 272° |
| 2026-05-07 19:51 | 48.84795 | -0.43567 | 36331 ft | 433 kts | 272° |
| 2026-05-07 19:51 | 48.85032 | -0.48122 | 36543 ft | 434 kts | 272° |
| 2026-05-07 19:51 | 48.85269 | -0.52688 | 36757 ft | 434 kts | 272° |
| 2026-05-07 19:51 | 48.85505 | -0.57265 | 36995 ft | 433 kts | 272° |
| 2026-05-07 19:52 | 48.85739 | -0.61819 | 37210 ft | 433 kts | 272° |
| 2026-05-07 19:52 | 48.85971 | -0.66383 | 37406 ft | 433 kts | 272° |
| 2026-05-07 19:52 | 48.86201 | -0.70948 | 37603 ft | 434 kts | 272° |
| 2026-05-07 19:52 | 48.86430 | -0.75511 | 37814 ft | 433 kts | 272° |
| 2026-05-07 19:53 | 48.86657 | -0.80075 | 38012 ft | 433 kts | 272° |
| 2026-05-07 19:53 | 48.86882 | -0.84645 | 38014 ft | 436 kts | 272° |
| 2026-05-07 19:53 | 48.87329 | -0.93831 | 38020 ft | 435 kts | 272° |
| 2026-05-07 19:54 | 48.87768 | -1.02985 | 38022 ft | 433 kts | 272° |
| 2026-05-07 19:54 | 48.88197 | -1.12093 | 38023 ft | 431 kts | 272° |
| 2026-05-07 19:55 | 48.88616 | -1.21158 | 38020 ft | 429 kts | 272° |
| 2026-05-07 19:55 | 48.89025 | -1.30144 | 38018 ft | 429 kts | 272° |
| 2026-05-07 19:56 | 48.89430 | -1.39191 | 38018 ft | 430 kts | 272° |
| 2026-05-07 19:56 | 48.89829 | -1.48256 | 38025 ft | 430 kts | 272° |
| 2026-05-07 19:57 | 48.90229 | -1.57356 | 38022 ft | 432 kts | 272° |
| 2026-05-07 19:57 | 48.90628 | -1.66485 | 38017 ft | 433 kts | 272° |
| 2026-05-07 19:58 | 48.90994 | -1.71036 | 37997 ft | 436 kts | 283° |
| 2026-05-07 19:58 | 48.92104 | -1.75329 | 38042 ft | 440 kts | 296° |
| 2026-05-07 19:58 | 48.93829 | -1.79199 | 38003 ft | 445 kts | 310° |
| 2026-05-07 19:58 | 48.96055 | -1.82488 | 38035 ft | 447 kts | 315° |
| 2026-05-07 19:59 | 49.00732 | -1.88757 | 38022 ft | 448 kts | 316° |
| 2026-05-07 19:59 | 49.05426 | -1.95037 | 38013 ft | 449 kts | 316° |
| 2026-05-07 20:00 | 49.10095 | -2.01405 | 38021 ft | 450 kts | 315° |
| 2026-05-07 20:00 | 49.14736 | -2.07809 | 38020 ft | 450 kts | 315° |
| 2026-05-07 20:01 | 49.19369 | -2.14230 | 38020 ft | 449 kts | 315° |
| 2026-05-07 20:01 | 49.23964 | -2.20614 | 38015 ft | 449 kts | 315° |